Airfield :
LOGIN :

Register | Disclaimer

   EN    FR    IT 

 










Legend :    VFR   Marginal VFR   IFR   Intensive IFR   Very Intensive IFR
Visi :
Ceiling :
>= 8 km
>= 3000ft
5 to 8 km
1000 to 3000 ft
1500m to 5 km
500 to 1000 ft
800 to 1500m
200 to 500 ft
< 800m
< 200 ft
Symbols :   Thunderstorms  Fog  Heavy snow  Heavy precipitations  Wind > 20 kt
SIGMETs :     Misc.  Thunderstorms  Icing  Turbulence  Mountain Waves  Volcanic Ashes







- Airport Elevation : 1791 ft
- IATA code : AOT


LIMW - Aosta

CURRENT METAR :
  • 200620Z AUTO VRB01KT 9999 -RA FEW008/// SCT016/// BKN065/// 12/11 Q1005

EXPIRED METARs :
  • 200550Z AUTO VRB01KT 9999 SCT064/// BKN150/// 11/10 Q1005
  • 200520Z AUTO 00000KT 9999 -RA FEW005/// BKN066/// OVC140/// 11/11 Q1005
  • 200450Z AUTO VRB02KT 9999 -RA FEW006/// SCT016/// OVC021/// 11/11 Q1005
  • 200420Z AUTO VRB01KT 9999 -RA SCT051/// OVC060/// 11/11 Q1005
  • 200350Z AUTO VRB02KT 9999 -RA FEW003/// BKN070/// 10/10 Q1005

TAF TAF LIMW
Valid from the 20 at 06:00 until the 20 at 15:00 UTC


200500Z 2006/2015 VRB05KT 9999 SCT015 BKN090
TEMPO 2004/2012 RA
No reported NOTAMs for that airfield.



MET'MAP, your aeronautical weather chart ! - Copyright ORBIFLY December 2007 - Disclaimer

ORBIFLY MET'MAP TEAM :

Programming & Development : Alexandra Zaïnal
Concept & Development : Baudouin d'Aumeries
Co-Development & Prog : Marc-Olivier Méhu
Technical & hardware support : Manuel Goepfert

Contact : metmap@orbifly.com




SOURCES & CREDITS :

   NOAA